Time;durP1;ratioP1;P1;durP2;ratioP2;P2;SDS_P1;SDS_P2;PMS_P1;PMS_P2;Temp;Humidity;BMP_temperature;BMP_pressure;BME280_temperature;BME280_humidity;BME280_pressure;Samples;Min_cycle;Max_cycle;Signal;HPM_P1;HPM_P2
2022/11/28 00:02:14;;;;;;;11.88;7.88;;;7.50;99.90;;;;;;5080540;28;20578;-57
2022/11/28 00:04:40;;;;;;;9.98;6.90;;;7.50;99.90;;;;;;5106577;28;20023;-58
2022/11/28 00:07:05;;;;;;;10.77;7.32;;;7.50;99.90;;;;;;5106054;28;20024;-57
2022/11/28 00:09:31;;;;;;;10.18;6.38;;;7.60;99.90;;;;;;5083971;28;20541;-55
2022/11/28 00:11:56;;;;;;;9.10;6.90;;;7.60;99.90;;;;;;5101286;28;20443;-54
2022/11/28 00:14:22;;;;;;;10.00;6.72;;;7.60;99.90;;;;;;5105847;28;20389;-56
2022/11/28 00:16:48;;;;;;;10.35;6.70;;;7.70;99.90;;;;;;5104092;28;20036;-58
2022/11/28 00:19:13;;;;;;;8.20;6.15;;;7.70;99.90;;;;;;5102942;28;20384;-56
2022/11/28 00:21:40;;;;;;;9.52;6.20;;;7.70;99.90;;;;;;5103706;28;20461;-57
2022/11/28 00:24:06;;;;;;;9.00;6.03;;;7.70;99.90;;;;;;5102738;28;20034;-56
2022/11/28 00:26:35;;;;;;;13.10;6.65;;;7.80;99.90;;;;;;5095944;28;20090;-57
2022/11/28 00:29:01;;;;;;;8.52;6.22;;;7.80;99.90;;;;;;5093804;28;20035;-58
2022/11/28 00:31:29;;;;;;;10.25;6.75;;;7.80;99.90;;;;;;5104055;28;20091;-57
2022/11/28 00:33:54;;;;;;;7.68;6.13;;;7.80;99.90;;;;;;5102891;28;20500;-56
2022/11/28 00:36:21;;;;;;;8.43;6.63;;;7.80;99.90;;;;;;5091762;28;20026;-55
2022/11/28 00:38:47;;;;;;;8.35;5.78;;;7.80;99.90;;;;;;5085562;28;20533;-56
2022/11/28 00:41:18;;;;;;;8.80;6.15;;;7.90;99.90;;;;;;5102992;28;20032;-57
2022/11/28 00:43:45;;;;;;;9.57;6.07;;;7.90;99.90;;;;;;5102192;28;20039;-58
2022/11/28 00:46:12;;;;;;;9.32;6.13;;;7.90;99.90;;;;;;5107036;28;20361;-56
2022/11/28 00:48:37;;;;;;;7.30;5.78;;;8.00;99.90;;;;;;5106389;28;20081;-57
2022/11/28 00:51:07;;;;;;;10.23;6.28;;;8.00;99.90;;;;;;5105102;28;20027;-58
2022/11/28 00:53:33;;;;;;;9.35;5.60;;;8.00;99.90;;;;;;5110015;27;20470;-56
2022/11/28 00:55:58;;;;;;;9.70;6.03;;;8.00;99.90;;;;;;5105853;28;20024;-58
2022/11/28 00:58:24;;;;;;;9.70;6.00;;;8.00;99.90;;;;;;5096820;28;20020;-57
2022/11/28 01:00:49;;;;;;;7.47;6.00;;;8.10;99.90;;;;;;5122929;27;20073;-56
2022/11/28 01:03:15;;;;;;;8.05;5.95;;;8.10;99.90;;;;;;5102345;28;20032;-56
2022/11/28 01:05:42;;;;;;;9.45;6.95;;;8.10;99.90;;;;;;5104772;28;20019;-57
2022/11/28 01:08:09;;;;;;;8.40;5.75;;;8.10;99.90;;;;;;5102552;28;20343;-57
2022/11/28 01:10:39;;;;;;;7.60;6.00;;;8.20;99.90;;;;;;5098922;28;20065;-56
2022/11/28 01:13:05;;;;;;;8.32;5.88;;;8.20;99.90;;;;;;5099257;28;20031;-57
2022/11/28 01:15:30;;;;;;;12.10;6.35;;;8.20;99.90;;;;;;5106011;28;20387;-57
2022/11/28 01:17:56;;;;;;;9.93;5.72;;;8.30;99.90;;;;;;5103405;28;20093;-57
2022/11/28 01:20:21;;;;;;;8.80;5.45;;;8.30;99.90;;;;;;5101750;28;20023;-57
2022/11/28 01:22:47;;;;;;;7.18;5.20;;;8.40;99.90;;;;;;5105116;28;20055;-58
2022/11/28 01:25:12;;;;;;;6.45;4.85;;;8.40;99.90;;;;;;5104814;28;20504;-56
2022/11/28 01:27:38;;;;;;;8.20;5.05;;;8.40;99.90;;;;;;5105929;28;20024;-57
2022/11/28 01:30:04;;;;;;;10.07;5.90;;;8.50;99.90;;;;;;5096456;28;20016;-58
2022/11/28 01:32:30;;;;;;;11.15;5.82;;;8.50;99.90;;;;;;5080108;28;20039;-57
2022/11/28 01:34:56;;;;;;;9.85;5.55;;;8.50;99.90;;;;;;5100355;28;20032;-57
2022/11/28 01:37:22;;;;;;;8.10;5.97;;;8.50;99.90;;;;;;5105078;28;20023;-57
2022/11/28 01:39:47;;;;;;;9.35;6.65;;;8.50;99.90;;;;;;5092348;28;20512;-56
2022/11/28 01:42:18;;;;;;;9.40;6.32;;;8.50;99.90;;;;;;5097631;28;20066;-58
2022/11/28 01:44:46;;;;;;;9.25;6.22;;;8.50;99.90;;;;;;5084678;28;20404;-58
2022/11/28 01:47:13;;;;;;;8.70;5.82;;;8.50;99.90;;;;;;5106006;28;20023;-57
2022/11/28 01:49:39;;;;;;;9.25;6.25;;;8.40;99.90;;;;;;5100478;28;20019;-56
2022/11/28 01:52:11;;;;;;;10.20;6.45;;;8.50;99.90;;;;;;5095804;28;20113;-58
2022/11/28 01:54:39;;;;;;;9.38;6.50;;;8.50;99.90;;;;;;5099970;28;21861;-57
2022/11/28 01:57:09;;;;;;;9.85;6.65;;;8.40;99.90;;;;;;5099401;28;20081;-57
2022/11/28 01:59:40;;;;;;;8.85;6.20;;;8.40;99.90;;;;;;5098730;28;20078;-55
2022/11/28 02:02:12;;;;;;;7.55;5.50;;;8.40;99.90;;;;;;5103546;28;20450;-55
2022/11/28 02:04:38;;;;;;;7.18;4.65;;;8.40;99.90;;;;;;5102848;27;20020;-56
2022/11/28 02:07:03;;;;;;;7.82;4.82;;;8.40;99.90;;;;;;5101406;28;20084;-57
2022/11/28 02:09:29;;;;;;;6.57;4.90;;;8.40;99.90;;;;;;5079507;28;20031;-55
2022/11/28 02:12:09;;;;;;;6.28;4.47;;;8.40;99.90;;;;;;5102174;28;20039;-57
2022/11/28 02:14:37;;;;;;;;;;;8.30;99.90;;;;;;5098786;28;20102;-57
2022/11/28 02:17:33;;;;;;;6.80;4.80;;;8.20;99.90;;;;;;5113019;27;20326;-57
2022/11/28 02:20:30;;;;;;;8.15;5.03;;;8.20;99.90;;;;;;5102083;28;20016;-57
2022/11/28 02:23:18;;;;;;;7.03;4.90;;;8.20;99.90;;;;;;5105439;28;20039;-57
2022/11/28 02:26:14;;;;;;;7.05;5.30;;;8.20;99.90;;;;;;5097629;28;20131;-57
2022/11/28 02:28:53;;;;;;;11.45;6.30;;;8.20;99.90;;;;;;5104822;28;20012;-58
2022/11/28 02:31:32;;;;;;;12.52;6.30;;;8.10;99.90;;;;;;5100027;28;20503;-57
2022/11/28 02:34:02;;;;;;;9.77;5.90;;;8.10;99.90;;;;;;5104350;28;21430;-57
2022/11/28 02:36:54;;;;;;;9.55;6.07;;;8.10;99.90;;;;;;5103339;28;20012;-57
2022/11/28 02:39:35;;;;;;;9.88;6.32;;;8.20;99.90;;;;;;5092468;28;20044;-56
2022/11/28 02:42:22;;;;;;;8.48;6.10;;;8.10;99.90;;;;;;5100093;28;20488;-57
2022/11/28 02:45:17;;;;;;;7.82;6.07;;;8.10;99.90;;;;;;5096818;28;20484;-57
2022/11/28 02:47:56;;;;;;;9.48;6.13;;;8.10;99.90;;;;;;5098174;28;20576;-57
2022/11/28 02:50:29;;;;;;;9.43;6.50;;;8.00;99.90;;;;;;5103836;28;20035;-56
2022/11/28 02:53:05;;;;;;;10.48;6.80;;;8.00;99.90;;;;;;5097198;28;20028;-56
2022/11/28 02:55:30;;;;;;;9.35;6.30;;;8.00;99.90;;;;;;5099781;28;20026;-57
2022/11/28 02:57:56;;;;;;;9.38;6.65;;;8.00;99.90;;;;;;5077135;28;20028;-57
2022/11/28 03:00:22;;;;;;;8.57;6.80;;;8.00;99.90;;;;;;5102226;28;20441;-56
2022/11/28 03:03:02;;;;;;;8.82;7.10;;;8.00;99.90;;;;;;5100394;28;20123;-57
2022/11/28 03:05:44;;;;;;;10.60;7.40;;;8.00;99.90;;;;;;5095516;28;20015;-56
2022/11/28 03:08:28;;;;;;;11.00;7.18;;;8.00;99.90;;;;;;5104088;28;20042;-57
2022/11/28 03:11:11;;;;;;;9.80;6.88;;;8.00;99.90;;;;;;5100261;28;20028;-57
2022/11/28 03:13:56;;;;;;;10.90;6.53;;;8.00;99.90;;;;;;5095894;28;20043;-58
2022/11/28 03:16:26;;;;;;;8.93;6.28;;;8.00;99.90;;;;;;5103330;28;20434;-56
2022/11/28 03:19:11;;;;;;;6.50;5.15;;;8.00;99.90;;;;;;5102748;28;20028;-57
2022/11/28 03:21:53;;;;;;;8.40;6.13;;;8.00;99.90;;;;;;5099558;28;20439;-58
2022/11/28 03:24:31;;;;;;;7.35;5.05;;;8.00;99.90;;;;;;5102301;28;20127;-57
2022/11/28 03:27:05;;;;;;;8.13;5.75;;;8.00;99.90;;;;;;5059596;28;20051;-56
2022/11/28 03:29:36;;;;;;;8.07;4.65;;;8.00;99.90;;;;;;5097862;28;20033;-57
2022/11/28 03:32:10;;;;;;;8.52;5.43;;;8.00;99.90;;;;;;5103090;28;20052;-57
2022/11/28 03:34:43;;;;;;;6.82;4.78;;;8.00;99.90;;;;;;5108296;28;20024;-57
2022/11/28 03:37:21;;;;;;;7.97;4.45;;;8.00;99.90;;;;;;5100302;28;20033;-57
2022/11/28 03:39:57;;;;;;;5.43;4.28;;;8.00;99.90;;;;;;5106305;28;20651;-57
2022/11/28 03:42:27;;;;;;;7.85;4.57;;;8.00;99.90;;;;;;5079172;28;20084;-56
2022/11/28 03:44:56;;;;;;;;;;;8.00;99.90;;;;;;5082338;28;20027;-57
2022/11/28 03:47:25;;;;;;;6.25;4.57;;;8.00;99.90;;;;;;5085986;28;19907;-57
2022/11/28 03:49:53;;;;;;;7.50;4.47;;;8.00;99.90;;;;;;5097044;28;20050;-57
2022/11/28 03:52:26;;;;;;;8.93;5.60;;;8.00;99.90;;;;;;5102622;27;20377;-58
2022/11/28 03:54:57;;;;;;;6.88;5.10;;;7.90;99.90;;;;;;5101156;28;20020;-58
2022/11/28 03:57:48;;;;;;;7.10;4.90;;;7.90;99.90;;;;;;5106770;28;20381;-58
2022/11/28 04:00:14;;;;;;;6.82;4.80;;;7.90;99.90;;;;;;5101416;28;20016;-58
2022/11/28 04:03:23;;;;;;;5.90;4.75;;;7.90;99.90;;;;;;5106335;27;20035;-58
2022/11/28 04:06:00;;;;;;;7.25;5.03;;;7.90;99.90;;;;;;5058247;27;20048;-57
2022/11/28 04:08:31;;;;;;;7.07;5.20;;;7.90;99.90;;;;;;5097885;28;20024;-56
2022/11/28 04:11:17;;;;;;;9.77;6.72;;;7.90;99.90;;;;;;5099994;28;20029;-55
2022/11/28 04:13:56;;;;;;;8.15;6.30;;;8.00;99.90;;;;;;5097547;28;20031;-55
2022/11/28 04:16:46;;;;;;;;;;;7.90;99.90;;;;;;5103482;28;20034;-58
2022/11/28 04:19:25;;;;;;;8.73;5.33;;;7.90;99.90;;;;;;5106129;27;19904;-56
2022/11/28 04:22:08;;;;;;;10.45;5.72;;;7.90;99.90;;;;;;5104203;28;20024;-56
2022/11/28 04:24:40;;;;;;;8.73;5.72;;;7.90;99.90;;;;;;5105056;28;20471;-57
2022/11/28 04:27:09;;;;;;;9.38;5.65;;;7.90;99.90;;;;;;5099124;28;20058;-57
2022/11/28 04:29:42;;;;;;;7.82;5.75;;;7.90;99.90;;;;;;5098626;28;20015;-55
2022/11/28 04:32:09;;;;;;;8.00;5.30;;;7.90;99.90;;;;;;5099717;28;20404;-57
2022/11/28 04:34:35;;;;;;;10.00;6.07;;;7.90;99.90;;;;;;5104932;28;20179;-57
2022/11/28 04:37:03;;;;;;;8.55;5.82;;;7.90;99.90;;;;;;5105678;28;20515;-57
2022/11/28 04:39:32;;;;;;;7.70;5.45;;;7.90;99.90;;;;;;5104172;28;20055;-57
2022/11/28 04:42:07;;;;;;;9.10;5.93;;;7.90;99.90;;;;;;5100173;28;20028;-58
2022/11/28 04:44:56;;;;;;;8.48;5.70;;;7.90;99.90;;;;;;5101281;28;20031;-55
2022/11/28 04:47:23;;;;;;;7.05;5.45;;;7.90;99.90;;;;;;5110170;27;20016;-57
2022/11/28 04:49:49;;;;;;;9.80;6.05;;;7.90;99.90;;;;;;5101810;28;20020;-56
2022/11/28 04:52:29;;;;;;;9.25;7.72;;;7.90;99.90;;;;;;5100303;27;20032;-58
2022/11/28 04:55:06;;;;;;;9.27;5.88;;;7.90;99.90;;;;;;5103295;28;20480;-57
2022/11/28 04:57:37;;;;;;;10.23;6.20;;;7.80;99.90;;;;;;5100581;28;20032;-57
2022/11/28 05:00:12;;;;;;;10.52;6.60;;;7.80;99.90;;;;;;5080382;28;20062;-55
2022/11/28 05:02:39;;;;;;;9.05;6.45;;;7.80;99.90;;;;;;5101331;28;20031;-56
2022/11/28 05:05:19;;;;;;;7.95;6.25;;;7.80;99.90;;;;;;5096724;28;20024;-57
2022/11/28 05:07:45;;;;;;;8.82;6.22;;;7.90;99.90;;;;;;5103684;28;20032;-57
2022/11/28 05:10:13;;;;;;;9.40;5.57;;;7.80;99.90;;;;;;5103298;28;20027;-57
2022/11/28 05:12:38;;;;;;;6.65;5.85;;;7.80;99.90;;;;;;5101118;28;20085;-57
2022/11/28 05:15:05;;;;;;;8.38;5.82;;;7.80;99.90;;;;;;5103721;28;20439;-56
2022/11/28 05:17:30;;;;;;;9.30;5.50;;;7.90;99.90;;;;;;5096885;28;20088;-58
2022/11/28 05:19:56;;;;;;;7.78;6.28;;;7.90;99.90;;;;;;5096356;28;20032;-58
2022/11/28 05:22:21;;;;;;;7.72;5.55;;;7.80;99.90;;;;;;5099194;28;20046;-57
2022/11/28 05:24:47;;;;;;;6.93;5.35;;;7.80;99.90;;;;;;5100863;28;20610;-56
2022/11/28 05:27:13;;;;;;;8.10;6.32;;;7.90;99.90;;;;;;5104519;28;20098;-56
2022/11/28 05:29:42;;;;;;;6.75;5.18;;;7.90;99.90;;;;;;5100144;28;20460;-57
2022/11/28 05:32:08;;;;;;;8.07;5.15;;;7.90;99.90;;;;;;5101266;28;20080;-57
2022/11/28 05:34:34;;;;;;;6.15;5.47;;;7.90;99.90;;;;;;5095678;28;20457;-57
2022/11/28 05:37:00;;;;;;;8.63;5.80;;;7.90;99.90;;;;;;5098918;28;20508;-58
2022/11/28 05:39:25;;;;;;;7.32;5.45;;;7.90;99.90;;;;;;5098613;28;20032;-55
2022/11/28 05:41:53;;;;;;;8.20;5.28;;;7.90;99.90;;;;;;5097503;28;20020;-57
2022/11/28 05:44:18;;;;;;;7.65;5.40;;;7.90;99.90;;;;;;5097203;28;20027;-57
2022/11/28 05:46:44;;;;;;;8.25;5.75;;;7.90;99.90;;;;;;5097258;28;20028;-57
2022/11/28 05:49:09;;;;;;;9.77;5.85;;;7.90;99.90;;;;;;5104736;28;20039;-57
2022/11/28 05:51:35;;;;;;;7.78;5.93;;;7.90;99.90;;;;;;5103082;27;20024;-56
2022/11/28 05:54:00;;;;;;;9.85;7.75;;;7.90;99.90;;;;;;5105723;28;20459;-57
2022/11/28 05:56:26;;;;;;;5.85;5.25;;;7.90;99.90;;;;;;5101400;28;20038;-57
2022/11/28 05:58:53;;;;;;;7.97;5.35;;;7.90;99.90;;;;;;5095553;28;20024;-57
2022/11/28 06:01:21;;;;;;;8.10;5.63;;;7.90;99.90;;;;;;5103467;28;20520;-57
2022/11/28 06:03:47;;;;;;;7.65;5.57;;;7.90;99.90;;;;;;5104126;28;20475;-57
2022/11/28 06:06:19;;;;;;;6.30;5.22;;;7.90;99.90;;;;;;5097128;28;20032;-57
2022/11/28 06:08:45;;;;;;;8.45;5.70;;;7.90;99.90;;;;;;5098364;28;20031;-57
2022/11/28 06:11:13;;;;;;;6.43;5.43;;;7.90;99.90;;;;;;5099156;28;20503;-57
2022/11/28 06:13:40;;;;;;;7.93;5.55;;;7.90;99.90;;;;;;5093179;28;20459;-57
2022/11/28 06:16:11;;;;;;;7.10;5.30;;;7.90;99.90;;;;;;5094206;28;20397;-57
2022/11/28 06:18:38;;;;;;;5.90;5.22;;;7.90;99.90;;;;;;5106364;28;20111;-57
2022/11/28 06:21:05;;;;;;;7.22;6.07;;;7.90;99.90;;;;;;5100259;28;20023;-57
2022/11/28 06:23:30;;;;;;;6.50;5.38;;;7.90;99.90;;;;;;5080359;28;20111;-55
2022/11/28 06:25:56;;;;;;;6.78;5.57;;;8.00;99.90;;;;;;5103307;28;20102;-58
2022/11/28 06:28:22;;;;;;;7.18;5.53;;;8.00;99.90;;;;;;5099741;28;20512;-56
2022/11/28 06:30:48;;;;;;;6.63;5.00;;;8.00;99.90;;;;;;5105089;28;20054;-57
2022/11/28 06:33:13;;;;;;;6.65;5.53;;;8.00;99.90;;;;;;5079949;28;20040;-57
2022/11/28 06:35:39;;;;;;;7.47;5.97;;;8.00;99.90;;;;;;5105433;28;20028;-58
2022/11/28 06:38:04;;;;;;;6.75;5.40;;;7.90;99.90;;;;;;5101338;28;20020;-57
2022/11/28 06:40:31;;;;;;;6.88;5.57;;;8.00;99.90;;;;;;5099405;28;20480;-57
2022/11/28 06:42:56;;;;;;;7.70;5.88;;;8.00;99.90;;;;;;5098154;28;20031;-58
2022/11/28 06:45:22;;;;;;;7.63;5.97;;;8.00;99.90;;;;;;5092424;28;20027;-57
2022/11/28 06:47:47;;;;;;;9.38;6.30;;;7.90;99.90;;;;;;5095824;28;20306;-58
2022/11/28 06:50:13;;;;;;;7.07;5.85;;;8.00;99.90;;;;;;5091194;28;20602;-57
2022/11/28 06:52:38;;;;;;;10.75;5.90;;;8.00;99.90;;;;;;5090586;28;20028;-57
2022/11/28 06:55:04;;;;;;;6.85;6.15;;;8.00;99.90;;;;;;5071582;28;20076;-57
2022/11/28 06:57:31;;;;;;;7.55;5.95;;;8.00;99.90;;;;;;5095618;28;20021;-56
2022/11/28 06:59:57;;;;;;;7.68;5.80;;;8.00;99.90;;;;;;5109122;27;20024;-55
2022/11/28 07:02:23;;;;;;;6.75;5.47;;;8.00;99.90;;;;;;5102445;28;20027;-57
2022/11/28 07:04:49;;;;;;;6.78;6.00;;;8.00;99.90;;;;;;5116470;28;20069;-57
2022/11/28 07:07:15;;;;;;;9.18;6.30;;;8.00;99.90;;;;;;5079115;28;20024;-57
2022/11/28 07:09:40;;;;;;;7.55;5.97;;;8.00;99.90;;;;;;5099730;28;20103;-57
2022/11/28 07:12:06;;;;;;;6.07;5.47;;;8.00;99.90;;;;;;5109519;28;20036;-56
2022/11/28 07:14:33;;;;;;;6.47;5.88;;;8.00;99.90;;;;;;5099361;28;20020;-57
2022/11/28 07:16:58;;;;;;;7.45;6.63;;;8.00;99.90;;;;;;5098959;28;20077;-57
2022/11/28 07:19:24;;;;;;;8.00;6.30;;;8.00;99.90;;;;;;5105958;28;20051;-57
2022/11/28 07:21:50;;;;;;;7.82;6.18;;;8.00;99.90;;;;;;5096096;28;20012;-57
2022/11/28 07:24:18;;;;;;;8.05;6.40;;;8.00;99.90;;;;;;5095736;28;20055;-55
2022/11/28 07:26:45;;;;;;;10.35;7.03;;;8.00;99.90;;;;;;5099206;28;20078;-57
2022/11/28 07:29:17;;;;;;;8.00;6.25;;;8.00;99.90;;;;;;5099298;28;20026;-58
2022/11/28 07:31:43;;;;;;;8.13;6.88;;;8.00;99.90;;;;;;5095609;28;20035;-57
2022/11/28 07:34:09;;;;;;;10.25;7.03;;;7.90;99.90;;;;;;5095580;28;20047;-58
2022/11/28 07:36:36;;;;;;;8.02;6.90;;;8.00;99.90;;;;;;5095575;28;20516;-57
2022/11/28 07:39:04;;;;;;;7.90;6.97;;;8.00;99.90;;;;;;5105197;28;20016;-57
2022/11/28 07:41:30;;;;;;;8.27;7.13;;;8.00;99.90;;;;;;5114274;28;20110;-57
2022/11/28 07:44:00;;;;;;;8.32;7.47;;;8.00;99.90;;;;;;5107670;28;20055;-57
2022/11/28 07:46:26;;;;;;;9.20;7.28;;;8.00;99.90;;;;;;5097455;28;20032;-57
2022/11/28 07:48:52;;;;;;;8.05;6.72;;;8.00;99.90;;;;;;5095269;28;20442;-57
2022/11/28 07:51:21;;;;;;;8.55;7.40;;;8.00;99.90;;;;;;5097940;28;20112;-57
2022/11/28 07:53:47;;;;;;;10.35;8.07;;;8.00;99.90;;;;;;5128044;27;20198;-57
2022/11/28 07:56:25;;;;;;;9.25;7.60;;;8.00;99.90;;;;;;5089288;28;20043;-56
2022/11/28 07:58:51;;;;;;;9.77;7.88;;;8.00;99.90;;;;;;5108705;28;20376;-57
2022/11/28 08:01:20;;;;;;;9.55;8.20;;;8.00;99.90;;;;;;5099028;28;20131;-57
2022/11/28 08:03:46;;;;;;;10.45;7.75;;;8.10;99.90;;;;;;5083052;28;20493;-56
2022/11/28 08:06:14;;;;;;;13.10;8.95;;;8.10;99.90;;;;;;5106665;28;20028;-57
2022/11/28 08:08:40;;;;;;;11.18;8.57;;;8.00;99.90;;;;;;5110285;28;20072;-57
2022/11/28 08:11:07;;;;;;;10.55;8.27;;;8.10;99.90;;;;;;5090574;28;20020;-57
2022/11/28 08:13:33;;;;;;;10.63;8.63;;;8.10;99.90;;;;;;5103443;28;20020;-57
2022/11/28 08:16:05;;;;;;;10.55;8.73;;;8.10;99.90;;;;;;5106952;28;20073;-57
2022/11/28 08:18:30;;;;;;;11.30;8.88;;;8.10;99.90;;;;;;5111340;28;20065;-57
2022/11/28 08:21:14;;;;;;;16.33;9.70;;;8.10;99.90;;;;;;5113075;28;20427;-57
2022/11/28 08:23:40;;;;;;;10.55;9.00;;;8.10;99.90;;;;;;5094753;28;20031;-57
2022/11/28 08:26:09;;;;;;;10.35;9.02;;;8.10;99.90;;;;;;5111663;28;20020;-57
2022/11/28 08:28:35;;;;;;;11.52;8.88;;;8.20;99.90;;;;;;5110419;28;20030;-57
2022/11/28 08:31:08;;;;;;;10.55;8.68;;;8.10;99.90;;;;;;5094612;28;20031;-57
2022/11/28 08:33:33;;;;;;;12.45;10.27;;;8.20;99.90;;;;;;5092392;28;20076;-57
2022/11/28 08:35:59;;;;;;;13.38;9.52;;;8.10;99.90;;;;;;5111044;28;20050;-57
2022/11/28 08:38:24;;;;;;;12.07;9.65;;;8.10;99.90;;;;;;5107381;28;20119;-57
2022/11/28 08:40:50;;;;;;;12.10;9.50;;;8.20;99.90;;;;;;5094479;28;20035;-57
2022/11/28 08:43:15;;;;;;;10.57;9.02;;;8.10;99.90;;;;;;5107783;28;20077;-57
2022/11/28 08:45:41;;;;;;;12.07;10.15;;;8.10;99.90;;;;;;5094367;28;20055;-57
2022/11/28 08:48:06;;;;;;;12.90;9.45;;;8.10;99.90;;;;;;5089449;28;20114;-58
2022/11/28 08:50:32;;;;;;;11.20;9.88;;;8.10;99.90;;;;;;5094431;28;20024;-57
2022/11/28 08:52:57;;;;;;;12.23;9.93;;;8.20;99.90;;;;;;5120686;27;20034;-57
2022/11/28 08:55:23;;;;;;;11.05;9.45;;;8.10;99.90;;;;;;5102570;28;20450;-57
2022/11/28 08:57:48;;;;;;;10.88;9.77;;;8.10;99.90;;;;;;5099362;28;20024;-57
2022/11/28 09:00:14;;;;;;;10.77;9.68;;;8.20;99.90;;;;;;5094349;28;20028;-58
2022/11/28 09:02:40;;;;;;;12.52;9.80;;;8.10;99.90;;;;;;5095155;28;20392;-57
2022/11/28 09:05:06;;;;;;;11.18;9.98;;;8.20;99.90;;;;;;5092415;28;20024;-57
2022/11/28 09:07:32;;;;;;;10.93;9.32;;;8.20;99.90;;;;;;5093821;28;20110;-57
2022/11/28 09:09:57;;;;;;;10.25;9.25;;;8.20;99.90;;;;;;5102867;28;20031;-57
2022/11/28 09:12:23;;;;;;;10.50;8.48;;;8.20;99.90;;;;;;5097673;28;20491;-57
2022/11/28 09:14:49;;;;;;;11.10;8.93;;;8.20;99.90;;;;;;5093449;28;20027;-57
2022/11/28 09:17:14;;;;;;;11.30;9.85;;;8.20;99.90;;;;;;5093126;28;20016;-57
2022/11/28 09:19:41;;;;;;;12.40;9.95;;;8.20;99.90;;;;;;5093378;28;20026;-57
2022/11/28 09:22:07;;;;;;;11.65;9.70;;;8.20;99.90;;;;;;5093527;28;20016;-58
2022/11/28 09:24:32;;;;;;;10.32;8.93;;;8.20;99.90;;;;;;5109817;28;20027;-58
2022/11/28 09:26:58;;;;;;;11.00;9.88;;;8.20;99.90;;;;;;5110829;28;20081;-57
2022/11/28 09:29:24;;;;;;;10.70;9.60;;;8.20;99.90;;;;;;5107792;28;20086;-57
2022/11/28 09:31:49;;;;;;;11.20;9.82;;;8.20;99.90;;;;;;5103919;28;20359;-57
2022/11/28 09:34:15;;;;;;;12.50;10.20;;;8.20;99.90;;;;;;5100602;27;20081;-57
2022/11/28 09:36:40;;;;;;;11.90;9.90;;;8.30;99.90;;;;;;5098134;28;20020;-57
2022/11/28 09:39:06;;;;;;;10.50;9.40;;;8.20;99.90;;;;;;5098588;28;20492;-57
2022/11/28 09:41:57;;;;;;;11.57;10.38;;;8.30;99.90;;;;;;5101143;28;20521;-57
2022/11/28 09:44:51;;;;;;;11.57;9.27;;;8.30;99.90;;;;;;5089992;28;20051;-57
2022/11/28 09:47:21;;;;;;;11.98;10.18;;;8.30;99.90;;;;;;5095482;28;20024;-58
2022/11/28 09:49:58;;;;;;;10.57;9.45;;;8.30;99.90;;;;;;5094317;27;20024;-57
2022/11/28 09:52:40;;;;;;;12.60;10.27;;;8.30;99.90;;;;;;5112433;27;20110;-57
2022/11/28 09:55:27;;;;;;;11.45;10.30;;;8.40;99.90;;;;;;5086115;28;20471;-57
2022/11/28 09:57:53;;;;;;;11.50;9.68;;;8.40;99.90;;;;;;5093072;28;20012;-57
2022/11/28 10:00:21;;;;;;;14.32;10.88;;;8.40;99.90;;;;;;5099927;28;20099;-58
2022/11/28 10:02:47;;;;;;;12.52;10.20;;;8.50;99.90;;;;;;5100502;28;20058;-56
2022/11/28 10:05:24;;;;;;;12.95;10.25;;;8.50;99.90;;;;;;5113259;28;20488;-57
2022/11/28 10:08:23;;;;;;;11.45;10.13;;;8.50;99.90;;;;;;5107769;28;20107;-57
2022/11/28 10:11:19;;;;;;;12.73;10.60;;;8.60;99.90;;;;;;5107258;28;20270;-57
2022/11/28 10:13:59;;;;;;;15.93;12.15;;;8.60;99.90;;;;;;5020240;28;20034;-57
2022/11/28 10:16:31;;;;;;;;;;;8.60;99.90;;;;;;5108506;28;20119;-57
2022/11/28 10:19:07;;;;;;;14.43;11.65;;;8.60;99.90;;;;;;5109120;28;19960;-57
2022/11/28 10:21:55;;;;;;;15.38;11.95;;;8.60;99.90;;;;;;5111430;28;20020;-56
2022/11/28 10:24:30;;;;;;;17.02;13.38;;;8.60;99.90;;;;;;5088499;28;20391;-57
2022/11/28 10:27:00;;;;;;;15.75;11.32;;;8.60;99.90;;;;;;5104165;28;20020;-57
2022/11/28 10:29:42;;;;;;;13.32;11.10;;;8.60;99.90;;;;;;5110993;28;20063;-58
2022/11/28 10:32:13;;;;;;;15.77;13.18;;;8.70;99.90;;;;;;5079904;28;20087;-57
2022/11/28 10:34:52;;;;;;;17.98;12.90;;;8.70;99.90;;;;;;5066717;28;20013;-57
2022/11/28 10:37:26;;;;;;;18.55;14.35;;;8.70;99.90;;;;;;5065634;28;20096;-58
2022/11/28 10:39:51;;;;;;;16.92;12.70;;;8.70;99.90;;;;;;5069772;28;20482;-57
2022/11/28 10:42:19;;;;;;;18.73;13.32;;;8.80;99.90;;;;;;5067864;28;20078;-58
2022/11/28 10:44:47;;;;;;;19.83;13.27;;;8.80;99.90;;;;;;5069267;28;20020;-57
2022/11/28 10:47:24;;;;;;;18.25;13.65;;;8.80;99.90;;;;;;5056347;28;20025;-57
2022/11/28 10:50:23;;;;;;;16.65;13.18;;;8.80;99.90;;;;;;5057824;28;20458;-57
2022/11/28 10:53:03;;;;;;;19.70;13.53;;;8.90;99.90;;;;;;5052688;28;20075;-57
2022/11/28 10:55:29;;;;;;;15.13;11.75;;;8.90;99.90;;;;;;5053333;28;20443;-57
2022/11/28 10:58:02;;;;;;;18.90;14.20;;;8.90;99.90;;;;;;5054828;28;20096;-57
2022/11/28 11:00:28;;;;;;;14.88;11.38;;;8.90;99.90;;;;;;5071663;28;20472;-58
2022/11/28 11:02:56;;;;;;;14.30;11.32;;;8.90;99.90;;;;;;5067505;28;20109;-57
2022/11/28 11:05:27;;;;;;;17.63;11.75;;;8.90;99.90;;;;;;5060908;28;20052;-58
2022/11/28 11:07:54;;;;;;;16.58;12.80;;;8.90;99.90;;;;;;5052839;28;20060;-57
2022/11/28 11:10:32;;;;;;;13.75;11.38;;;8.90;99.90;;;;;;5051552;28;20083;-60
2022/11/28 11:12:58;;;;;;;16.63;13.20;;;8.90;99.90;;;;;;5053375;28;20037;-60
2022/11/28 11:15:32;;;;;;;16.02;12.95;;;9.00;99.90;;;;;;5052790;28;20033;-60
2022/11/28 11:18:04;;;;;;;16.23;12.55;;;9.00;99.90;;;;;;5051893;28;20021;-60
2022/11/28 11:20:37;;;;;;;16.85;12.65;;;9.00;99.90;;;;;;5052970;28;20806;-60
2022/11/28 11:23:21;;;;;;;17.38;13.57;;;9.00;99.90;;;;;;5051938;28;20033;-59
2022/11/28 11:25:51;;;;;;;15.80;13.18;;;9.00;99.90;;;;;;5053984;28;20031;-60
2022/11/28 11:28:36;;;;;;;15.70;12.93;;;9.00;99.90;;;;;;5050438;28;20056;-59
2022/11/28 11:31:04;;;;;;;18.73;14.18;;;9.00;99.90;;;;;;5056327;28;20023;-59
2022/11/28 11:33:33;;;;;;;19.35;13.63;;;9.00;99.90;;;;;;5081964;28;20101;-59
2022/11/28 11:36:01;;;;;;;18.52;13.80;;;9.00;99.90;;;;;;5093872;28;20031;-60
2022/11/28 11:38:29;;;;;;;17.30;13.45;;;9.00;99.90;;;;;;5105474;28;20074;-60
2022/11/28 11:40:55;;;;;;;18.27;14.32;;;9.00;99.90;;;;;;5108835;28;20608;-60
2022/11/28 11:43:31;;;;;;;19.33;14.40;;;9.00;99.90;;;;;;5067029;28;20041;-59
2022/11/28 11:46:13;;;;;;;18.13;14.35;;;9.00;99.90;;;;;;5109977;28;20030;-59
2022/11/28 11:48:42;;;;;;;21.13;14.95;;;9.00;99.90;;;;;;5108451;28;20027;-58
2022/11/28 11:51:27;;;;;;;17.50;14.20;;;9.00;99.90;;;;;;5107212;28;20035;-58
2022/11/28 11:54:03;;;;;;;15.68;12.75;;;9.10;99.90;;;;;;5102569;28;20374;-58
2022/11/28 11:56:35;;;;;;;17.25;14.02;;;9.10;99.90;;;;;;5095762;28;20438;-58
2022/11/28 11:59:04;;;;;;;16.27;13.10;;;9.10;99.90;;;;;;5107150;28;20106;-58
2022/11/28 12:01:31;;;;;;;15.82;12.60;;;9.10;99.90;;;;;;5104189;28;20016;-58
2022/11/28 12:04:14;;;;;;;15.75;13.32;;;9.10;99.90;;;;;;5096920;28;20441;-58
2022/11/28 12:06:47;;;;;;;17.48;13.98;;;9.20;99.90;;;;;;5108050;28;20995;-58
2022/11/28 12:09:25;;;;;;;18.38;13.73;;;9.20;99.90;;;;;;5111412;28;20020;-58
2022/11/28 12:12:00;;;;;;;20.02;14.88;;;9.20;99.90;;;;;;5111580;28;20034;-58
2022/11/28 12:14:30;;;;;;;17.60;13.77;;;9.20;99.90;;;;;;5108370;28;20115;-58
2022/11/28 12:17:14;;;;;;;18.10;13.35;;;9.20;99.90;;;;;;5110513;28;20049;-58
2022/11/28 12:20:20;;;;;;;18.23;13.63;;;9.30;99.90;;;;;;5107224;28;20094;-58
2022/11/28 12:23:06;;;;;;;18.25;13.48;;;9.40;99.90;;;;;;5106684;28;20039;-58
2022/11/28 12:25:56;;;;;;;18.00;14.60;;;9.40;99.90;;;;;;5110389;28;20128;-58
2022/11/28 12:28:39;;;;;;;16.13;13.18;;;9.40;99.90;;;;;;5109201;27;20015;-58
2022/11/28 12:31:36;;;;;;;14.27;11.77;;;9.40;99.90;;;;;;5088594;28;20024;-58
2022/11/28 12:34:29;;;;;;;14.70;12.50;;;9.40;99.90;;;;;;5104780;28;20028;-58
2022/11/28 12:37:19;;;;;;;14.35;11.93;;;9.40;99.90;;;;;;5110305;28;20524;-58
2022/11/28 12:40:02;;;;;;;13.30;10.77;;;9.50;99.90;;;;;;5108252;28;20472;-58
2022/11/28 12:42:49;;;;;;;11.95;9.93;;;9.50;99.90;;;;;;5107845;28;20028;-58
2022/11/28 12:45:23;;;;;;;16.48;11.77;;;9.60;99.90;;;;;;5111033;28;20469;-58
2022/11/28 12:48:15;;;;;;;15.15;11.73;;;9.60;99.90;;;;;;5113269;28;20027;-58
2022/11/28 12:50:53;;;;;;;11.95;9.43;;;9.70;99.90;;;;;;5109755;28;20047;-59
2022/11/28 12:53:37;;;;;;;13.55;9.90;;;9.70;99.90;;;;;;5111664;27;20016;-58
2022/11/28 12:56:21;;;;;;;15.73;11.20;;;9.80;99.90;;;;;;5112473;28;20019;-58
2022/11/28 12:58:56;;;;;;;17.27;12.52;;;9.80;99.90;;;;;;5110506;28;20023;-58
2022/11/28 13:01:55;;;;;;;20.80;14.32;;;9.80;99.90;;;;;;5108188;28;20507;-58
2022/11/28 13:04:23;;;;;;;24.70;15.80;;;9.80;99.90;;;;;;5108881;28;20041;-58
2022/11/28 13:07:16;;;;;;;24.05;15.82;;;9.80;99.90;;;;;;5106788;28;20016;-58
2022/11/28 13:10:08;;;;;;;26.60;15.93;;;9.90;99.90;;;;;;5094803;28;20055;-59
2022/11/28 13:12:45;;;;;;;29.02;17.17;;;9.90;99.90;;;;;;5100292;28;20024;-58
2022/11/28 13:15:22;;;;;;;26.33;16.55;;;9.90;99.90;;;;;;5097866;28;20023;-58